• Join FlightAware (Why Join?)
  • Login
  • US Flag 
08:51PM EST


 

Airport Tracker/Info


-or-


 

Live Flight TrackerFlight Track Log ✈ UAL262 ✈ 23-Jun-2013 ✈ KSEA - KIAD

Flight Track Log - Related Links

Times and Time Zones

All times are in EDT time to prevent confusion due to time zone crossing. See the UAL262 flight status page for this flight to view local times or setup timezone preferences in your user account.

Time Position Orientation Groundspeed Altitude Reporting Facility
EDT Latitude Longitude Course Direction KTS MPH feet Rate Location/Type
03:03AM 47.4258 -122.3089 90° East 176 203 1,400  Level Seattle Center
03:04AM 47.3475 -122.3103 181° South 213 245 4,600 2,100 Climbing Seattle Center
03:05AM 47.4617 -121.7467 96° East  Level Estimated
03:05AM 47.3108 -122.2328 125° Southeast 271 312 6,600  Level Seattle Center
03:06AM 47.4650 -121.5583 90° East  Level Estimated
03:06AM 47.3339 -122.1189 73° East 293 337 9,400  Level Seattle Center
03:07AM 47.4680 -121.3699 90° East  Level Estimated
03:07AM 47.3550 -121.9869 77° East 309 356 11,300  Level Seattle Center
03:08AM 47.4707 -121.1814 90° East  Level Estimated
03:08AM 47.3778 -121.8403 77° East 372 428 12,300  Level Seattle Center
03:09AM 47.4017 -121.6819 77° East 399 459 14,100 1,920 Climbing Seattle Center
03:10AM 47.4278 -121.5158 77° East 416 479 16,200 1,800 Climbing Seattle Center
03:11AM 47.4256 -121.3439 91° East 422 486 17,800 1,920 Climbing Seattle Center
03:12AM 47.4200 -121.1925 93° East 420 483 20,100 1,500 Climbing Seattle Center
03:13AM 47.4178 -121.0192 91° East 426 490 20,800 960 Climbing Seattle Center
03:14AM 47.4147 -120.8236 91° East 452 520 22,100 1,320 Climbing Seattle Center
03:15AM 47.4117 -120.6333 91° East 462 532 23,500 1,140 Climbing Seattle Center
03:16AM 47.4078 -120.4433 92° East 464 534 24,500 960 Climbing Seattle Center
03:17AM 47.4172 -120.2456 86° East 481 554 25,500 1,200 Climbing Seattle Center
03:18AM 47.4267 -120.0492 86° East 481 554 26,900 1,380 Climbing Seattle Center
03:19AM 47.4353 -119.8550 86° East 476 548 28,300 1,380 Climbing Seattle Center
03:20AM 47.4425 -119.6622 87° East 473 544 29,700 1,200 Climbing Seattle Center
03:21AM 47.4494 -119.4711 87° East 470 541 30,800 1,140 Climbing Seattle Center
03:22AM 47.4575 -119.2822 86° East 463 533 32,000 840 Climbing Seattle Center
03:23AM 47.4642 -119.0939 87° East 461 531 32,600 840 Climbing Seattle Center
03:24AM 47.4703 -118.9028 87° East 466 536 33,800 840 Climbing Seattle Center
03:25AM 47.4769 -118.7100 87° East 470 541 34,300 600 Climbing Seattle Center
03:26AM 47.4858 -118.5161 86° East 473 544 35,000 300 Climbing Seattle Center
03:27AM 47.4914 -118.3197 88° East 478 550 35,000  Level Seattle Center
03:28AM 47.4969 -118.1219 88° East 481 554 35,000  Level Seattle Center
03:29AM 47.5019 -117.9253 88° East 481 554 35,000  Level Seattle Center
03:30AM 47.5025 -117.7292 90° East 479 551 35,000  Level Seattle Center
03:31AM 47.5031 -117.5325 90° East 480 552 35,000  Level Seattle Center
03:32AM 47.5033 -117.3381 90° East 478 550 35,000  Level Seattle Center
03:33AM 47.5017 -117.1083 91° East 481 554 35,000  Level Seattle Center
03:34AM 47.5036 -116.9186 89° East 482 555 35,000  Level Seattle Center
03:35AM 47.5042 -116.7269 90° East 474 545 35,000  Level Seattle Center
03:36AM 47.5033 -116.5328 90° East 476 548 35,000  Level Seattle Center
03:37AM 47.5014 -116.3367 91° East 478 550 35,000  Level Seattle Center
03:38AM 47.4997 -116.1397 91° East 481 554 35,000  Level Seattle Center
03:39AM 47.4986 -115.9400 90° East 486 559 35,000  Level Seattle Center
03:40AM 47.5006 -115.7397 89° East 488 562 35,000  Level Seattle Center
03:41AM 47.5036 -115.5331 89° East 486 559 35,000  Level Seattle Center
03:42AM 47.5039 -115.3333 90° East 488 562 35,000  Level Seattle Center
03:43AM 47.5039 -115.1311 90° East 493 567 35,000  Level Seattle Center
03:44AM 47.5033 -114.9308 90° East 493 567 35,000  Level Seattle Center
03:45AM 47.5028 -114.7294 90° East 493 567 35,000  Level Seattle Center
03:46AM 47.5025 -114.5283 90° East 495 570 35,000  Level Seattle Center
03:47AM 47.5022 -114.3269 90° East 495 570 35,000  Level Seattle Center
03:48AM 47.5006 -114.1247 91° East 496 571 35,000  Level Seattle Center
03:49AM 47.4986 -113.9208 91° East 498 573 35,000  Level Seattle Center
03:50AM 47.4967 -113.7189 91° East 498 573 35,000  Level Seattle Center
03:52AM 47.4928 -113.4336 91° East 499 574 35,000  Level Salt Lake Center
03:53AM 47.4917 -113.2281 90° East 503 579 35,000  Level Salt Lake Center
03:54AM 47.4897 -113.0244 91° East 500 575 35,000  Level Salt Lake Center
03:55AM 47.4839 -112.7917 92° East 500 575 35,000  Level Salt Lake Center
03:56AM 47.4806 -112.5856 91° East 503 579 35,000  Level Salt Lake Center
03:57AM 47.4753 -112.3797 92° East 504 580 35,000  Level Salt Lake Center
03:58AM 47.4700 -112.1722 92° East 506 582 35,000  Level Salt Lake Center
03:59AM 47.4661 -111.9639 92° East 510 587 35,000  Level Salt Lake Center
04:00AM 47.4597 -111.7572 93° East 509 586 35,000  Level Salt Lake Center
04:01AM 47.4550 -111.5508 92° East 508 585 35,000  Level Salt Lake Center
04:02AM 47.4472 -111.3478 93° East 507 583 35,000  Level Salt Lake Center
04:03AM 47.4400 -111.1044 92° East 508 585 35,000  Level Salt Lake Center
04:04AM 47.4336 -110.9014 93° East 503 579 35,000  Level Salt Lake Center
04:05AM 47.4269 -110.6969 93° East 503 579 35,000  Level Salt Lake Center
04:06AM 47.4192 -110.4911 93° East 504 580 35,000  Level Salt Lake Center
04:07AM 47.4103 -110.2864 94° East 503 579 35,000  Level Salt Lake Center
04:08AM 47.4017 -110.0842 94° East 498 573 35,000  Level Salt Lake Center
04:09AM 47.3928 -109.8792 94° East 502 578 35,000  Level Salt Lake Center
04:10AM 47.3844 -109.6750 93° East 501 577 35,000  Level Salt Lake Center
04:11AM 47.3744 -109.4714 94° East 500 575 35,000  Level Salt Lake Center
04:12AM 47.3642 -109.2681 94° East 501 577 35,000  Level Salt Lake Center
04:13AM 47.3572 -109.0636 93° East 502 578 35,000  Level Salt Lake Center
04:14AM 47.3569 -108.8558 90° East 505 581 35,000  Level Salt Lake Center
04:15AM 47.3589 -108.6500 89° East 505 581 35,000  Level Salt Lake Center
04:16AM 47.3572 -108.4433 91° East 505 581 35,000  Level Salt Lake Center
04:17AM 47.3583 -108.2369 89° East 506 582 35,000  Level Salt Lake Center
04:18AM 47.3572 -108.0303 90° East 506 582 35,000  Level Salt Lake Center
04:19AM 47.3528 -107.8239 92° East 506 582 35,000  Level Salt Lake Center
04:20AM 47.3525 -107.6167 90° East 506 582 35,000  Level Salt Lake Center
04:21AM 47.3481 -107.3897 92° East 506 582 35,000  Level Salt Lake Center
04:22AM 47.3458 -107.1833 91° East 505 581 35,000  Level Salt Lake Center
04:23AM 47.3400 -106.9761 92° East 507 583 35,000  Level Salt Lake Center
04:24AM 47.3350 -106.7692 92° East 508 585 35,000  Level Salt Lake Center
04:25AM 47.3333 -106.5622 91° East 507 583 35,000  Level Salt Lake Center
04:26AM 47.3278 -106.3542 92° East 509 586 35,000  Level Salt Lake Center
04:27AM 47.3206 -106.1472 93° East 508 585 35,000  Level Salt Lake Center
04:28AM 47.3158 -105.9408 92° East 508 585 35,000  Level Salt Lake Center
04:29AM 47.3103 -105.7319 92° East 510 587 35,000  Level Salt Lake Center
04:30AM 47.3047 -105.5228 92° East 513 590 35,000  Level Salt Lake Center
04:31AM 47.2975 -105.3128 93° East 514 592 35,000  Level Salt Lake Center
04:32AM 47.2875 -105.0597 93° East 516 594 35,000  Level Salt Lake Center
04:33AM 47.2794 -104.8500 93° East 517 595 35,000  Level Salt Lake Center
04:34AM 47.2711 -104.6408 93° East 516 594 35,000  Level Salt Lake Center
04:35AM 47.2642 -104.4344 93° East 514 592 35,000  Level Salt Lake Center
04:36AM 47.2556 -104.2244 93° East 515 593 35,000  Level Salt Lake Center
04:37AM 47.2458 -104.0167 94° East 515 593 35,000  Level Salt Lake Center
04:38AM 47.2369 -103.8100 94° East 514 592 35,000  Level Salt Lake Center
04:39AM 47.2289 -103.6033 93° East 514 592 35,000  Level Salt Lake Center
04:40AM 47.2192 -103.3950 94° East 514 592 35,000  Level Salt Lake Center
04:41AM 47.2094 -103.1889 94° East 513 590 35,000  Level Salt Lake Center
04:42AM 47.1997 -102.9831 94° East 509 586 35,000  Level Salt Lake Center
04:43AM 47.1889 -102.7756 94° East 512 589 35,000  Level Salt Lake Center
04:44AM 47.1778 -102.5689 94° East 512 589 35,000  Level Salt Lake Center
04:45AM 47.1650 -102.3608 95° East 512 589 35,000  Level Salt Lake Center
04:46AM 47.1522 -102.1528 95° East 513 590 35,000  Level Salt Lake Center
04:47AM 47.1394 -101.9428 95° East 515 593 35,000  Level Salt Lake Center
04:49AM 47.1197 -101.6125 95° East 514 592 35,000  Level Minneapolis Center
04:50AM 47.1044 -101.4058 96° East 512 589 35,000  Level Minneapolis Center
04:51AM 47.0939 -101.1942 94° East 519 597 35,000  Level Minneapolis Center
04:52AM 47.0781 -100.9861 96° East 517 595 35,000  Level Minneapolis Center
04:53AM 47.0619 -100.7758 96° East 524 603 35,000  Level Minneapolis Center
04:54AM 47.0469 -100.5800 96° East 524 603 35,000  Level Minneapolis Center
04:55AM 47.0292 -100.3528 96° East 524 603 35,000  Level Minneapolis Center
04:56AM 47.0136 -100.1403 96° East 526 605 35,000  Level Minneapolis Center
04:57AM 46.9878 -99.9356 100° East 517 595 35,000  Level Minneapolis Center
04:58AM 46.9392 -99.7414 110° East 510 587 35,000  Level Minneapolis Center
04:59AM 46.8914 -99.5486 110° East 509 586 35,000  Level Minneapolis Center
05:00AM 46.8439 -99.3547 110° East 508 585 35,000  Level Minneapolis Center
05:01AM 46.7958 -99.1611 110° East 510 587 35,000  Level Minneapolis Center
05:02AM 46.7469 -98.9647 110° East 517 595 35,000  Level Minneapolis Center
05:03AM 46.6872 -98.7267 110° East 522 601 35,000  Level Minneapolis Center
05:04AM 46.6392 -98.5272 109° East 524 603 35,000  Level Minneapolis Center
05:05AM 46.6033 -98.3219 104° East 526 605 35,000  Level Minneapolis Center
05:06AM 46.5656 -98.1181 105° East 527 606 35,000 -180 Level Minneapolis Center
05:07AM 46.5164 -97.8750 106° East 528 608 34,700 -600 Descending Minneapolis Center
05:08AM 46.4775 -97.6681 105° East 532 612 33,800 -900 Descending Minneapolis Center
05:09AM 46.4386 -97.4642 105° East 530 610 33,000 -420 Descending Minneapolis Center
05:10AM 46.3994 -97.2619 106° East 526 605 33,000  Level Minneapolis Center
05:11AM 46.3597 -97.0611 106° East 522 601 33,000  Level Minneapolis Center
05:12AM 46.3192 -96.8567 106° East 530 610 33,000  Level Minneapolis Center
05:13AM 46.2783 -96.6519 106° East 533 613 33,000  Level Minneapolis Center
05:14AM 46.2372 -96.4461 106° East 535 616 33,000  Level Minneapolis Center
05:15AM 46.1956 -96.2414 106° East 535 616 33,000  Level Minneapolis Center
05:16AM 46.1464 -96.0075 107° East 534 615 33,000  Level Minneapolis Center
05:17AM 46.1039 -95.8003 106° East 537 618 33,000  Level Minneapolis Center
05:18AM 46.0600 -95.5928 107° East 540 621 33,000  Level Minneapolis Center
05:19AM 46.0167 -95.3858 107° East 540 621 33,000  Level Minneapolis Center
05:20AM 45.9711 -95.1789 108° East 543 625 33,000  Level Minneapolis Center
05:21AM 45.9244 -94.9622 107° East 542 624 33,000  Level Minneapolis Center
05:22AM 45.8797 -94.7583 107° East 539 620 33,000  Level Minneapolis Center
05:23AM 45.8342 -94.5550 108° East 539 620 33,000  Level Minneapolis Center
05:24AM 45.7897 -94.3517 107° East 537 618 33,000  Level Minneapolis Center
05:25AM 45.7433 -94.1489 108° East 537 618 33,000  Level Minneapolis Center
05:26AM 45.6969 -93.9464 108° East 537 618 33,000  Level Minneapolis Center
05:27AM 45.6508 -93.7436 108° East 538 619 33,000  Level Minneapolis Center
05:28AM 45.6036 -93.5428 109° East 534 615 33,000  Level Minneapolis Center
05:29AM 45.5567 -93.3442 109° East 531 611 33,000  Level Minneapolis Center
05:30AM 45.5094 -93.1439 109° East 532 612 33,000  Level Minneapolis Center
05:31AM 45.4617 -92.9444 109° East 531 611 33,000  Level Minneapolis Center
05:32AM 45.4144 -92.7444 109° East 531 611 33,000  Level Minneapolis Center
05:33AM 45.3675 -92.5475 109° East 528 608 33,000  Level Minneapolis Center
05:34AM 45.3181 -92.3500 110° East 529 609 33,000  Level Minneapolis Center
05:35AM 45.2675 -92.1533 110° East 530 610 33,000  Level Minneapolis Center
05:36AM 45.2114 -91.9619 113° Southeast 528 608 33,000  Level Minneapolis Center
05:37AM 45.1556 -91.7700 112° Southeast 527 606 33,000  Level Minneapolis Center
05:38AM 45.1008 -91.5794 112° Southeast 525 604 33,000  Level Minneapolis Center
05:39AM 45.0453 -91.3897 112° Southeast 524 603 33,000  Level Minneapolis Center
05:40AM 44.9914 -91.2017 112° Southeast 521 600 33,000  Level Minneapolis Center
05:41AM 44.9361 -91.0136 112° Southeast 520 598 33,000  Level Minneapolis Center
05:42AM 44.8783 -90.8144 112° Southeast 517 595 33,000  Level Minneapolis Center
05:43AM 44.8278 -90.6431 113° Southeast 513 590 33,000  Level Minneapolis Center
05:44AM 44.7731 -90.4564 112° Southeast 514 592 33,000  Level Minneapolis Center
05:45AM 44.7172 -90.2708 113° Southeast 514 592 33,000  Level Minneapolis Center
05:46AM 44.6611 -90.0864 113° Southeast 514 592 33,000  Level Minneapolis Center
05:47AM 44.6044 -89.9017 113° Southeast 514 592 33,000  Level Minneapolis Center
05:48AM 44.5481 -89.7167 113° Southeast 516 594 33,000  Level Minneapolis Center
05:49AM 44.4914 -89.5333 113° Southeast 513 590 33,000  Level Minneapolis Center
05:50AM 44.4350 -89.3525 114° Southeast 509 586 33,000  Level Minneapolis Center
05:51AM 44.3772 -89.1731 114° Southeast 506 582 33,000  Level Minneapolis Center
05:52AM 44.3192 -88.9900 114° Southeast 509 586 33,000  Level Minneapolis Center
05:53AM 44.2622 -88.8086 114° Southeast 510 587 33,000  Level Minneapolis Center
05:54AM 44.2042 -88.6281 114° Southeast 508 585 33,000  Level Minneapolis Center
05:55AM 44.1472 -88.4492 114° Southeast 503 579 33,000  Level Minneapolis Center
05:56AM 44.1086 -88.3303 114° Southeast 505 581 33,000  Level Chicago Center
05:57AM 44.0506 -88.1503 114° Southeast 507 583 33,000  Level Chicago Center
05:58AM 43.9900 -87.9739 115° Southeast 504 580 33,000  Level Chicago Center
05:59AM 43.9144 -87.8061 122° Southeast 508 585 33,000  Level Chicago Center
06:00AM 43.8414 -87.6425 122° Southeast 502 578 33,000  Level Chicago Center
06:01AM 43.7650 -87.4767 122° Southeast 504 580 33,000  Level Chicago Center
06:02AM 43.7000 -87.3364 123° Southeast 506 582 33,000  Level Chicago Center
06:03AM 43.6250 -87.1733 122° Southeast 504 580 33,000  Level Chicago Center
06:04AM 43.5503 -87.0094 122° Southeast 505 581 33,000  Level Chicago Center
06:05AM 43.4756 -86.8464 122° Southeast 504 580 33,000  Level Chicago Center
06:06AM 43.4003 -86.6864 123° Southeast 501 577 33,000  Level Chicago Center
06:07AM 43.3253 -86.5264 123° Southeast 499 574 33,000  Level Chicago Center
06:08AM 43.2503 -86.3667 123° Southeast 499 574 33,000  Level Chicago Center
06:09AM 43.1736 -86.2058 123° Southeast 504 580 33,000  Level Chicago Center
06:10AM 43.0833 -86.0144 123° Southeast 504 580 33,000  Level Chicago Center
06:11AM 43.0122 -85.8686 124° Southeast 510 587 33,000  Level Chicago Center
06:12AM 42.9361 -85.7097 123° Southeast 506 582 33,000  Level Chicago Center
06:13AM 42.8589 -85.5497 123° Southeast 508 585 33,000  Level Chicago Center
06:14AM 42.7822 -85.3931 124° Southeast 501 577 33,000  Level Chicago Center
06:15AM 42.7064 -85.2350 123° Southeast 500 575 33,000  Level Chicago Center
06:16AM 42.6358 -85.0708 120° Southeast 502 578 33,000  Level Chicago Center
06:17AM 42.5767 -84.8992 115° Southeast 505 581 33,000  Level Chicago Center
06:18AM 42.5175 -84.7275 115° Southeast 504 580 33,000  Level Chicago Center
06:19AM 42.4556 -84.5575 116° Southeast 506 582 33,000  Level Chicago Center
06:20AM 42.3872 -84.3928 119° Southeast 505 581 33,000  Level Chicago Center
06:21AM 42.3008 -84.2106 123° Southeast 509 586 33,000  Level Cleveland Center
06:22AM 42.2286 -84.0522 122° Southeast 509 586 33,000  Level Cleveland Center
06:23AM 42.1561 -83.8942 122° Southeast 504 580 33,000  Level Cleveland Center
06:24AM 42.0833 -83.7336 121° Southeast 504 580 33,000  Level Cleveland Center
06:25AM 42.0186 -83.5878 121° Southeast 504 580 33,000  Level Cleveland Center
06:26AM 41.9417 -83.4167 121° Southeast 504 580 33,000  Level Cleveland Center
06:27AM 41.8761 -83.2744 122° Southeast 504 580 33,000  Level Cleveland Center
06:28AM 41.7878 -83.1258 129° Southeast 504 580 33,000  Level Cleveland Center
06:29AM 41.6972 -82.9831 130° Southeast 504 580 33,000  Level Cleveland Center
06:30AM 41.6083 -82.8464 131° Southeast 494 568 33,000  Level Cleveland Center
06:31AM 41.5169 -82.7103 132° Southeast 486 559 33,000  Level Cleveland Center
06:32AM 41.4258 -82.5686 131° Southeast 491 565 33,000  Level Cleveland Center
06:33AM 41.3342 -82.4358 133° Southeast 497 572 33,000  Level Cleveland Center
06:34AM 41.2447 -82.2953 130° Southeast 497 572 33,000  Level Cleveland Center
06:35AM 41.1506 -82.1606 133° Southeast 497 572 33,000  Level Cleveland Center
06:36AM 41.0586 -82.0233 132° Southeast 497 572 33,000  Level Cleveland Center
06:37AM 40.9664 -81.8867 132° Southeast 497 572 33,000  Level Cleveland Center
06:38AM 40.8742 -81.7475 131° Southeast 502 578 33,000  Level Cleveland Center
06:39AM 40.7817 -81.6142 132° Southeast 495 570 33,000  Level Cleveland Center
06:40AM 40.6892 -81.4758 131° Southeast 501 577 33,000  Level Cleveland Center
06:41AM 40.6067 -81.3544 132° Southeast 501 577 33,000  Level Cleveland Center
06:42AM 40.4992 -81.1919 131° Southeast 490 564 33,000  Level Cleveland Center
06:43AM 40.4058 -81.0603 133° Southeast 490 564 33,000  Level Cleveland Center
06:44AM 40.3189 -80.9236 130° Southeast 490 564 33,000  Level Cleveland Center
06:45AM 40.2400 -80.7761 125° Southeast 490 564 33,000  Level Cleveland Center
06:46AM 40.1650 -80.6239 123° Southeast 490 564 33,000  Level Cleveland Center
06:47AM 40.0900 -80.4744 123° Southeast 495 570 33,000  Level Cleveland Center
06:48AM 40.0231 -80.3392 123° Southeast 495 570 33,000  Level Cleveland Center
06:49AM 39.9436 -80.1878 124° Southeast 495 570 33,000  Level Cleveland Center
06:50AM 39.8700 -80.0394 123° Southeast 495 570 33,000 -240 Level Cleveland Center
06:52AM 39.6956 -79.7044 124° Southeast 509 586 32,400 -1,260 Descending Washington Center
06:53AM 39.6117 -79.5378 123° Southeast 503 579 28,900 -2,820 Descending Washington Center
06:54AM 39.5350 -79.3911 124° Southeast 503 579 26,900 -2,100 Descending Washington Center
06:55AM 39.4661 -79.2583 124° Southeast 498 573 24,800 -2,220 Descending Washington Center
06:56AM 39.4228 -79.1083 110° East 462 532 22,500 -2,220 Descending Washington Center
06:57AM 39.3958 -78.9567 103° East 447 514 20,400 -2,160 Descending Washington Center
06:58AM 39.3703 -78.8214 104° East 418 481 18,300 -1,920 Descending Washington Center
06:59AM 39.3447 -78.6833 103° East 399 459 16,600 -1,800 Descending Washington Center
07:00AM 39.3231 -78.5561 102° East 377 434 14,700 -1,920 Descending Washington Center
07:01AM 39.2989 -78.4264 103° East 366 421 12,800 -1,800 Descending Washington Center
07:02AM 39.2558 -78.3122 116° Southeast 361 415 11,200 -1,200 Descending Washington Center
07:03AM 39.2078 -78.2194 124° Southeast 338 389 10,400 -1,140 Descending Washington Center
07:04AM 39.1617 -78.1319 124° Southeast 312 359 9,000 -1,440 Descending Washington Center
07:05AM 39.1178 -78.0447 123° Southeast 295 339 7,600 -1,200 Descending Washington Center
07:06AM 39.0736 -77.9631 125° Southeast 289 333 6,700 -840 Descending Washington Center
07:07AM 39.0272 -77.8736 124° Southeast 279 321 6,000 -360 Descending Washington Center
07:08AM 38.9808 -77.7892 125° Southeast 279 321 6,000  Level Washington Center
07:09AM 38.9575 -77.6953 108° East 273 314 6,000  Level Washington Center
07:10AM 38.9833 -77.6000 71° East 284 327 6,000  Level Potomac TRACON
07:11AM 39.0500 -77.5667 21° North 277 319 6,000 -180 Level Potomac TRACON
07:12AM 39.1167 -77.5667 360° North 211 243 5,700 -840 Descending Potomac TRACON
07:13AM 39.1500 -77.5500 21° North 222 255 4,500 -1,260 Descending Potomac TRACON
07:14AM 39.1333 -77.4833 108° East 213 245 3,400 -1,080 Descending Potomac TRACON
07:15AM 39.0833 -77.4667 165° South 213 245 2,500 -1,020 Descending Potomac TRACON